createdAt,value
2019-03-17T00:01:59.919Z,44.82
2019-03-17T00:04:50.208Z,45.15
2019-03-17T00:07:40.519Z,45.49
2019-03-17T00:10:30.766Z,46.29
2019-03-17T00:13:21.045Z,47.46
2019-03-17T00:16:11.320Z,47.09
2019-03-17T00:19:01.918Z,48.67
2019-03-17T00:21:52.300Z,49.29
2019-03-17T00:24:42.684Z,49.22
2019-03-17T00:27:32.966Z,49.46
2019-03-17T00:30:23.280Z,49.49
2019-03-17T00:33:13.585Z,50.92
2019-03-17T00:36:03.922Z,53.28
2019-03-17T00:38:54.158Z,65.53
2019-03-17T00:41:44.484Z,68.58
2019-03-17T00:44:34.844Z,69.13
2019-03-17T00:47:25.359Z,70.53
2019-03-17T00:50:15.909Z,70.99
2019-03-17T00:53:06.398Z,69.68
2019-03-17T00:55:56.409Z,70.28
2019-03-17T00:58:46.418Z,72.00
2019-03-17T01:01:36.660Z,71.82
2019-03-17T01:04:26.989Z,76.42
2019-03-17T01:07:17.269Z,80.81
2019-03-17T01:10:07.827Z,87.84
2019-03-17T01:12:58.128Z,94.53
2019-03-17T01:15:48.523Z,97.70
2019-03-17T01:18:39.069Z,98.78
2019-03-17T01:21:29.321Z,100.00
2019-03-17T01:24:19.531Z,100.00
2019-03-17T01:27:09.609Z,100.00
2019-03-17T01:29:59.836Z,100.00
2019-03-17T01:32:50.125Z,100.00
2019-03-17T01:35:40.165Z,94.95
2019-03-17T01:38:32.964Z,92.82
2019-03-17T01:41:23.014Z,91.69
2019-03-17T01:44:13.303Z,90.48
2019-03-17T01:47:03.868Z,84.59
2019-03-17T01:49:56.413Z,84.92
2019-03-17T01:52:46.878Z,78.41
2019-03-17T01:55:37.300Z,73.47
2019-03-17T01:58:27.539Z,74.20
2019-03-17T02:01:17.919Z,74.10
2019-03-17T02:04:08.269Z,73.19
2019-03-17T02:06:59.748Z,72.59
2019-03-17T02:09:49.649Z,68.99
2019-03-17T02:12:39.683Z,69.04
2019-03-17T02:15:29.924Z,67.36
2019-03-17T02:18:20.204Z,65.84
2019-03-17T02:21:10.862Z,66.31
2019-03-17T02:24:01.553Z,68.20
2019-03-17T02:26:52.017Z,75.21
2019-03-17T02:29:42.400Z,75.12
2019-03-17T02:32:33.529Z,72.91
2019-03-17T02:35:38.059Z,67.28
2019-03-17T02:38:15.291Z,63.38
2019-03-17T02:41:05.802Z,63.11
2019-03-17T02:43:55.704Z,60.18
2019-03-17T02:46:46.139Z,59.93
2019-03-17T02:49:36.437Z,58.70
2019-03-17T02:52:26.570Z,59.61
2019-03-17T02:55:16.921Z,61.19
2019-03-17T02:58:07.549Z,61.95
2019-03-17T03:00:57.865Z,63.43
2019-03-17T03:03:48.180Z,63.66
2019-03-17T03:06:38.298Z,62.56
2019-03-17T03:09:28.590Z,63.05
2019-03-17T03:12:18.683Z,62.04
2019-03-17T03:15:08.893Z,61.27
2019-03-17T03:17:59.106Z,62.14
2019-03-17T03:20:49.426Z,64.47
2019-03-17T03:23:39.598Z,64.66
2019-03-17T03:26:30.210Z,64.08
2019-03-17T03:29:21.021Z,64.54
2019-03-17T03:32:11.146Z,63.34
2019-03-17T03:35:02.466Z,61.61
2019-03-17T03:37:52.617Z,56.44
2019-03-17T03:40:42.613Z,54.27
2019-03-17T03:43:32.872Z,54.39
2019-03-17T03:46:22.903Z,61.75
2019-03-17T03:49:14.195Z,66.19
2019-03-17T03:52:04.399Z,65.80
2019-03-17T03:54:54.830Z,64.69
2019-03-17T03:57:45.119Z,65.96
2019-03-17T04:00:35.318Z,67.24
2019-03-17T04:03:25.477Z,69.23
2019-03-17T04:06:26.588Z,71.85
2019-03-17T04:09:08.420Z,71.19
2019-03-17T04:11:58.996Z,74.40
2019-03-17T04:14:49.242Z,68.51
2019-03-17T04:17:39.193Z,67.45
2019-03-17T04:20:30.189Z,67.37
2019-03-17T04:23:20.840Z,66.23
2019-03-17T04:26:11.060Z,68.47
2019-03-17T04:29:01.312Z,69.01
2019-03-17T04:31:51.671Z,69.48
2019-03-17T04:34:42.178Z,69.97
2019-03-17T04:37:32.385Z,69.21
2019-03-17T04:40:22.470Z,65.27
2019-03-17T04:43:12.679Z,63.94
2019-03-17T04:46:02.750Z,63.09
2019-03-17T04:48:55.563Z,63.92
2019-03-17T04:51:45.987Z,63.55
2019-03-17T04:54:36.369Z,63.89
2019-03-17T04:57:26.769Z,62.81
2019-03-17T05:00:16.979Z,60.70
2019-03-17T05:03:07.561Z,59.47
2019-03-17T05:05:58.077Z,58.86
2019-03-17T05:08:48.458Z,55.32
2019-03-17T05:11:38.613Z,54.72
2019-03-17T05:14:28.978Z,53.50
2019-03-17T05:17:19.158Z,51.52
2019-03-17T05:20:09.604Z,49.06
2019-03-17T05:22:59.632Z,47.58
2019-03-17T05:25:49.931Z,46.00
2019-03-17T05:28:40.198Z,44.55
2019-03-17T05:31:30.714Z,40.94
2019-03-17T05:34:22.236Z,38.05
2019-03-17T05:37:12.684Z,35.89
2019-03-17T05:40:02.619Z,33.58
2019-03-17T05:42:54.404Z,36.39
2019-03-17T05:45:44.753Z,33.48
2019-03-17T05:48:35.125Z,34.14
2019-03-17T05:51:27.079Z,32.69
2019-03-17T05:54:17.949Z,31.66
2019-03-17T05:57:08.446Z,31.69
2019-03-17T05:59:59.487Z,31.62
2019-03-17T06:02:50.479Z,30.77
2019-03-17T06:05:41.704Z,29.45
2019-03-17T06:08:33.641Z,30.00
2019-03-17T06:11:24.682Z,28.40
2019-03-17T06:14:15.442Z,28.88
2019-03-17T06:17:06.460Z,28.67
2019-03-17T06:19:57.550Z,25.71
2019-03-17T06:22:48.585Z,23.98
2019-03-17T06:25:39.370Z,24.78
2019-03-17T06:28:30.065Z,20.94
2019-03-17T06:31:20.557Z,20.24
2019-03-17T06:34:11.138Z,20.24
2019-03-17T06:37:01.473Z,20.76
2019-03-17T06:39:52.386Z,23.55
2019-03-17T06:42:42.725Z,28.35
2019-03-17T06:45:33.678Z,32.61
2019-03-17T06:48:25.530Z,29.97
2019-03-17T06:51:16.315Z,27.21
2019-03-17T06:54:07.409Z,24.93
2019-03-17T06:56:58.386Z,28.98
2019-03-17T06:59:49.222Z,32.73
2019-03-17T07:02:39.709Z,32.84
2019-03-17T07:05:30.765Z,31.76
2019-03-17T07:08:21.478Z,33.97
2019-03-17T07:11:12.301Z,32.75
2019-03-17T07:14:03.258Z,33.05
2019-03-17T07:16:53.845Z,35.29
2019-03-17T07:19:44.669Z,34.51
2019-03-17T07:22:35.484Z,33.61
2019-03-17T07:25:26.204Z,29.26
2019-03-17T07:28:17.068Z,26.07
2019-03-17T07:31:08.592Z,23.05
2019-03-17T07:33:58.537Z,23.05
2019-03-17T07:36:49.376Z,23.92
2019-03-17T07:39:40.214Z,23.54
2019-03-17T07:42:32.579Z,23.96
2019-03-17T07:45:23.642Z,23.96
2019-03-17T07:48:14.578Z,21.33
2019-03-17T07:51:05.457Z,22.42
2019-03-17T07:53:56.587Z,23.00
2019-03-17T07:56:47.283Z,29.14
2019-03-17T07:59:38.166Z,29.97
2019-03-17T08:02:29.149Z,32.87
2019-03-17T08:05:20.001Z,33.72
2019-03-17T08:08:10.562Z,35.11
2019-03-17T08:11:01.494Z,34.95
2019-03-17T08:13:52.327Z,35.98
2019-03-17T08:16:43.129Z,35.57
2019-03-17T08:19:33.942Z,35.33
2019-03-17T08:22:24.963Z,37.31
2019-03-17T08:25:15.772Z,38.09
2019-03-17T08:28:06.852Z,37.28
2019-03-17T08:30:57.636Z,36.48
2019-03-17T08:33:48.354Z,39.12
2019-03-17T08:36:39.391Z,38.96
2019-03-17T08:39:30.521Z,38.58
2019-03-17T08:42:21.473Z,34.50
2019-03-17T08:45:12.425Z,38.39
2019-03-17T08:48:02.389Z,39.97
2019-03-17T08:50:52.679Z,42.42
2019-03-17T08:53:42.938Z,43.23
2019-03-17T08:56:33.190Z,45.61
2019-03-17T08:59:24.453Z,45.05
2019-03-17T09:02:14.738Z,46.41
2019-03-17T09:05:05.111Z,45.66
2019-03-17T09:07:55.354Z,45.78
2019-03-17T09:10:45.959Z,45.67
2019-03-17T09:13:36.342Z,43.57
2019-03-17T09:16:26.326Z,41.19
2019-03-17T09:19:16.767Z,40.22
2019-03-17T09:22:06.924Z,39.70
2019-03-17T09:24:57.950Z,37.61
2019-03-17T09:27:48.512Z,37.99
2019-03-17T09:30:38.674Z,40.33
2019-03-17T09:33:28.618Z,43.37
2019-03-17T09:36:18.879Z,42.49
2019-03-17T09:39:09.378Z,45.19
2019-03-17T09:41:59.722Z,45.24
2019-03-17T09:44:49.984Z,47.78
2019-03-17T09:47:41.396Z,49.27
2019-03-17T09:50:31.491Z,48.16
2019-03-17T09:53:21.657Z,48.60
2019-03-17T09:56:11.662Z,47.12
2019-03-17T09:59:02.014Z,48.67
2019-03-17T10:01:52.268Z,49.92
2019-03-17T10:04:42.719Z,44.29
2019-03-17T10:07:33.195Z,44.29
2019-03-17T10:10:23.763Z,43.57
2019-03-17T10:13:14.252Z,46.09
2019-03-17T10:16:04.538Z,47.95
2019-03-17T10:18:55.142Z,45.91
2019-03-17T10:21:45.786Z,45.91
2019-03-17T10:24:36.298Z,45.19
2019-03-17T10:27:26.270Z,42.76
2019-03-17T10:30:16.339Z,41.84
2019-03-17T10:33:06.723Z,44.88
2019-03-17T10:35:56.789Z,45.33
2019-03-17T10:38:47.336Z,50.21
2019-03-17T10:41:37.744Z,47.16
2019-03-17T10:44:29.185Z,55.24
2019-03-17T10:47:19.795Z,47.61
2019-03-17T10:50:12.384Z,48.79
2019-03-17T10:53:02.433Z,47.79
2019-03-17T10:55:52.665Z,48.27
2019-03-17T10:58:42.944Z,50.08
2019-03-17T11:01:32.980Z,48.90
2019-03-17T11:04:23.497Z,49.68
2019-03-17T11:07:13.790Z,46.68
2019-03-17T11:10:03.826Z,46.36
2019-03-17T11:12:54.172Z,49.79
2019-03-17T11:15:44.581Z,49.72
2019-03-17T11:18:35.365Z,46.97
2019-03-17T11:21:25.553Z,48.84
2019-03-17T11:24:15.894Z,49.14
2019-03-17T11:27:05.964Z,45.13
2019-03-17T11:29:56.356Z,45.39
2019-03-17T11:32:46.869Z,43.81
2019-03-17T11:35:37.221Z,42.93
2019-03-17T11:38:27.557Z,44.56
2019-03-17T11:41:18.938Z,43.23
2019-03-17T11:44:09.147Z,42.91
2019-03-17T11:46:59.152Z,42.91
2019-03-17T11:49:49.463Z,43.88
2019-03-17T11:52:39.580Z,42.75
2019-03-17T11:55:31.870Z,42.46
2019-03-17T11:58:21.905Z,42.46
2019-03-17T12:01:12.268Z,42.70
2019-03-17T12:04:02.825Z,46.56
2019-03-17T12:06:53.050Z,45.62
2019-03-17T12:09:50.152Z,45.62
2019-03-17T12:12:35.538Z,45.13
2019-03-17T12:15:25.860Z,43.84
2019-03-17T12:18:15.960Z,45.15
2019-03-17T12:21:06.532Z,43.76
2019-03-17T12:23:57.005Z,42.73
2019-03-17T12:26:47.593Z,43.63
2019-03-17T12:29:37.927Z,41.58
2019-03-17T12:32:28.805Z,40.67
2019-03-17T12:35:19.090Z,39.28
2019-03-17T12:38:09.826Z,38.17
2019-03-17T12:41:00.074Z,38.76
2019-03-17T12:43:50.180Z,38.48
2019-03-17T12:46:40.340Z,38.69
2019-03-17T12:49:30.714Z,38.55
2019-03-17T12:52:21.560Z,40.24
2019-03-17T12:55:11.771Z,39.71
2019-03-17T12:58:01.934Z,40.62
2019-03-17T13:00:52.231Z,42.34
2019-03-17T13:03:42.765Z,40.46
2019-03-17T13:06:35.660Z,40.46
2019-03-17T13:09:25.661Z,41.55
2019-03-17T13:12:15.974Z,41.93
2019-03-17T13:15:08.129Z,45.97
2019-03-17T13:17:58.195Z,45.84
2019-03-17T13:20:48.487Z,50.70
2019-03-17T13:23:39.191Z,49.03
2019-03-17T13:26:29.569Z,49.96
2019-03-17T13:29:20.096Z,46.95
2019-03-17T13:32:10.248Z,48.88
2019-03-17T13:35:00.581Z,49.15
2019-03-17T13:37:51.749Z,47.52
2019-03-17T13:40:41.789Z,46.99
2019-03-17T13:43:32.039Z,49.47
2019-03-17T13:46:22.745Z,46.76
2019-03-17T13:49:12.685Z,45.26
2019-03-17T13:52:03.131Z,45.34
2019-03-17T13:54:53.466Z,45.03
2019-03-17T13:57:44.203Z,44.39
2019-03-17T14:00:35.672Z,41.90
2019-03-17T14:03:26.138Z,43.83
2019-03-17T14:06:16.490Z,40.64
2019-03-17T14:09:07.631Z,40.34
2019-03-17T14:11:57.730Z,39.90
2019-03-17T14:14:47.914Z,41.08
2019-03-17T14:17:38.132Z,38.30
2019-03-17T14:20:31.077Z,38.81
2019-03-17T14:23:21.277Z,37.37
2019-03-17T14:26:11.580Z,36.54
2019-03-17T14:29:01.952Z,35.91
2019-03-17T14:31:52.796Z,36.13
2019-03-17T14:34:43.097Z,36.22
2019-03-17T14:37:33.229Z,35.80
2019-03-17T14:40:24.630Z,36.92
2019-03-17T14:43:14.605Z,36.09
2019-03-17T14:46:04.860Z,35.84
2019-03-17T14:48:57.290Z,36.28
2019-03-17T14:51:47.505Z,36.13
2019-03-17T14:54:37.935Z,36.84
2019-03-17T14:57:28.209Z,36.90
2019-03-17T15:00:19.347Z,35.35
2019-03-17T15:03:09.600Z,35.40
2019-03-17T15:05:59.662Z,34.86
2019-03-17T15:08:50.731Z,35.63
2019-03-17T15:11:41.318Z,35.79
2019-03-17T15:14:31.481Z,35.79
2019-03-17T15:17:21.799Z,35.83
2019-03-17T15:20:13.959Z,35.63
2019-03-17T15:23:04.223Z,35.33
2019-03-17T15:25:54.241Z,35.22
2019-03-17T15:28:44.797Z,35.37
2019-03-17T15:31:34.797Z,35.59
2019-03-17T15:34:25.152Z,35.37
2019-03-17T15:37:15.460Z,36.35
2019-03-17T15:40:06.873Z,36.11
2019-03-17T15:42:56.844Z,36.11
2019-03-17T15:45:47.423Z,36.54
2019-03-17T15:48:37.811Z,35.43
2019-03-17T15:51:28.177Z,34.85
2019-03-17T15:54:21.354Z,35.74
2019-03-17T15:57:10.473Z,34.89
2019-03-17T16:00:00.828Z,35.54
2019-03-17T16:02:50.930Z,35.54
2019-03-17T16:05:41.248Z,36.08
2019-03-17T16:08:31.943Z,35.39
2019-03-17T16:11:30.841Z,34.29
2019-03-17T16:14:13.856Z,33.99
2019-03-17T16:17:03.877Z,34.59
2019-03-17T16:19:54.485Z,36.42
2019-03-17T16:22:44.825Z,37.76
2019-03-17T16:25:35.911Z,38.78
2019-03-17T16:28:26.148Z,38.75
2019-03-17T16:31:16.584Z,38.63
2019-03-17T16:34:06.914Z,38.40
2019-03-17T16:36:57.321Z,38.87
2019-03-17T16:39:47.932Z,38.41
2019-03-17T16:42:41.004Z,36.41
2019-03-17T16:45:31.122Z,36.65
2019-03-17T16:48:21.592Z,36.05
2019-03-17T16:51:11.860Z,36.46
2019-03-17T16:54:02.444Z,36.43
2019-03-17T16:56:52.960Z,36.55
2019-03-17T16:59:43.353Z,37.69
2019-03-17T17:02:33.625Z,37.03
2019-03-17T17:05:23.970Z,36.64
2019-03-17T17:08:14.172Z,36.92
2019-03-17T17:11:04.450Z,36.90
2019-03-17T17:13:55.798Z,37.69
2019-03-17T17:16:45.914Z,38.42
2019-03-17T17:19:36.250Z,39.96
2019-03-17T17:22:29.045Z,40.69
2019-03-17T17:25:19.163Z,42.33
2019-03-17T17:28:09.661Z,46.58
2019-03-17T17:31:00.352Z,51.75
2019-03-17T17:33:50.948Z,54.39
2019-03-17T17:36:41.413Z,56.74
2019-03-17T17:39:31.365Z,57.44
2019-03-17T17:42:21.566Z,58.35
2019-03-17T17:45:13.826Z,53.88
2019-03-17T17:48:06.333Z,52.33
2019-03-17T17:50:56.541Z,49.03
2019-03-17T17:53:46.712Z,45.65
2019-03-17T17:56:37.105Z,45.10
2019-03-17T17:59:27.673Z,43.24
2019-03-17T18:02:17.802Z,43.24
2019-03-17T18:05:08.177Z,42.68
2019-03-17T18:07:58.506Z,43.61
2019-03-17T18:10:48.887Z,42.84
2019-03-17T18:13:38.999Z,42.43
2019-03-17T18:16:29.323Z,42.35
2019-03-17T18:19:20.048Z,42.42
2019-03-17T18:22:10.539Z,41.95
2019-03-17T18:25:00.745Z,42.57
2019-03-17T18:27:50.931Z,42.37
2019-03-17T18:30:41.294Z,45.16
2019-03-17T18:33:31.513Z,45.08
2019-03-17T18:36:22.138Z,48.12
2019-03-17T18:39:12.325Z,48.66
2019-03-17T18:42:02.788Z,47.83
2019-03-17T18:44:53.062Z,47.40
2019-03-17T18:47:43.435Z,48.11
2019-03-17T18:50:33.692Z,46.52
2019-03-17T18:53:24.138Z,45.49
2019-03-17T18:56:14.309Z,45.01
2019-03-17T18:59:04.445Z,44.93
2019-03-17T19:01:54.449Z,44.42
2019-03-17T19:04:45.089Z,44.38
2019-03-17T19:07:35.488Z,44.75
2019-03-17T19:10:25.557Z,50.70
2019-03-17T19:13:15.676Z,51.81
2019-03-17T19:16:08.016Z,58.14
2019-03-17T19:18:59.735Z,58.60
2019-03-17T19:21:50.245Z,56.49
2019-03-17T19:24:40.191Z,51.61
2019-03-17T19:27:30.844Z,47.12
2019-03-17T19:30:21.438Z,49.54
2019-03-17T19:33:12.134Z,48.97
2019-03-17T19:36:02.148Z,48.98
2019-03-17T19:38:52.536Z,49.13
2019-03-17T19:41:42.956Z,48.52
2019-03-17T19:44:33.149Z,48.90
2019-03-17T19:47:23.583Z,48.99
2019-03-17T19:50:14.370Z,49.05
2019-03-17T19:53:04.553Z,49.60
2019-03-17T19:55:54.857Z,49.01
2019-03-17T19:58:45.101Z,49.09
2019-03-17T20:01:38.532Z,50.75
2019-03-17T20:04:34.982Z,52.22
2019-03-17T20:07:22.764Z,52.39
2019-03-17T20:10:15.544Z,52.23
2019-03-17T20:13:11.486Z,53.16
2019-03-17T20:15:57.324Z,54.06
2019-03-17T20:18:47.678Z,54.93
2019-03-17T20:21:37.810Z,55.60
2019-03-17T20:24:28.076Z,55.97
2019-03-17T20:27:18.476Z,56.66
2019-03-17T20:30:11.663Z,56.72
2019-03-17T20:33:01.748Z,57.18
2019-03-17T20:35:52.500Z,57.69
2019-03-17T20:38:42.992Z,58.45
2019-03-17T20:41:33.360Z,57.80
2019-03-17T20:44:23.533Z,59.51
2019-03-17T20:47:14.143Z,59.32
2019-03-17T20:50:04.640Z,59.98
2019-03-17T20:52:57.286Z,60.11
2019-03-17T20:55:47.256Z,61.29
2019-03-17T20:58:37.888Z,63.99
2019-03-17T21:01:28.173Z,68.13
2019-03-17T21:04:19.013Z,73.29
2019-03-17T21:07:09.325Z,75.75
2019-03-17T21:09:59.918Z,77.60
2019-03-17T21:12:50.363Z,80.05
2019-03-17T21:15:43.320Z,82.00
2019-03-17T21:18:33.777Z,83.50
2019-03-17T21:21:25.029Z,84.74
2019-03-17T21:24:15.215Z,86.07
2019-03-17T21:27:05.622Z,87.32
2019-03-17T21:29:55.797Z,88.01
2019-03-17T21:32:46.111Z,90.82
2019-03-17T21:35:36.486Z,91.94
2019-03-17T21:38:26.850Z,93.01
2019-03-17T21:41:17.118Z,93.70
2019-03-17T21:44:07.537Z,93.81
2019-03-17T21:46:58.061Z,93.79
2019-03-17T21:49:48.762Z,94.45
2019-03-17T21:52:38.704Z,95.64
2019-03-17T21:55:30.859Z,95.83
2019-03-17T21:58:20.836Z,95.80
2019-03-17T22:01:10.990Z,95.64
2019-03-17T22:04:01.333Z,95.44
2019-03-17T22:06:51.658Z,95.23
2019-03-17T22:09:41.695Z,95.59
2019-03-17T22:12:32.138Z,94.90
2019-03-17T22:15:22.176Z,94.51
2019-03-17T22:18:13.036Z,94.42
2019-03-17T22:21:03.403Z,94.70
2019-03-17T22:23:53.872Z,94.20
2019-03-17T22:26:44.094Z,93.78
2019-03-17T22:29:34.202Z,94.26
2019-03-17T22:32:24.484Z,94.43
2019-03-17T22:35:15.158Z,94.20
2019-03-17T22:38:05.372Z,92.89
2019-03-17T22:40:56.016Z,92.37
2019-03-17T22:43:46.096Z,91.17
2019-03-17T22:46:36.864Z,90.94
2019-03-17T22:49:27.459Z,90.13
2019-03-17T22:52:17.932Z,89.28
2019-03-17T22:55:08.448Z,88.53
2019-03-17T22:57:59.461Z,87.64
2019-03-17T23:00:49.822Z,86.36
2019-03-17T23:03:40.152Z,85.18
2019-03-17T23:06:30.398Z,83.99
2019-03-17T23:09:20.909Z,83.38
2019-03-17T23:12:11.129Z,81.71
2019-03-17T23:15:02.547Z,81.80
2019-03-17T23:17:53.150Z,81.56
2019-03-17T23:20:43.861Z,80.08
2019-03-17T23:23:34.345Z,80.08
2019-03-17T23:26:24.908Z,79.30
2019-03-17T23:29:14.914Z,79.21
2019-03-17T23:32:04.926Z,80.49
2019-03-17T23:34:56.366Z,81.11
2019-03-17T23:37:46.715Z,81.74
2019-03-17T23:40:36.915Z,81.12
2019-03-17T23:43:27.824Z,80.47
2019-03-17T23:46:18.024Z,80.23
2019-03-17T23:49:08.448Z,81.27
2019-03-17T23:51:59.405Z,82.09
2019-03-17T23:54:50.344Z,83.34
2019-03-17T23:57:42.365Z,84.61
